Airfield :
LOGIN :

Register | Disclaimer

   EN    FR    IT 

 










Legend :    VFR   Marginal VFR   IFR   Intensive IFR   Very Intensive IFR
Visi :
Ceiling :
>= 8 km
>= 3000ft
5 to 8 km
1000 to 3000 ft
1500m to 5 km
500 to 1000 ft
800 to 1500m
200 to 500 ft
< 800m
< 200 ft
Symbols :   Thunderstorms  Fog  Heavy snow  Heavy precipitations  Wind > 20 kt
SIGMETs :     Misc.  Thunderstorms  Icing  Turbulence  Mountain Waves  Volcanic Ashes







- Airport Elevation : 82 ft
- IATA code : AAR


EKAH - Aarhus Tirstrup

CURRENT METAR :
  • 161850Z AUTO 17001KT 5000NDV BKN010/// 15/13 Q1018

EXPIRED METARs :
  • 161820Z AUTO 24003KT 6000NDV BKN011/// 15/13 Q1018
  • 161750Z AUTO 23002KT 5000NDV OVC011/// 15/13 Q1018
  • 161720Z AUTO 16001KT 5000NDV OVC011/// 14/13 Q1018
  • 161650Z AUTO 21002KT 4600NDV BR OVC012/// 14/13 Q1018
  • 161620Z AUTO 23002KT 4400NDV BR OVC012/// 14/13 Q1018

TAF AMD TAF EKAH
Valid from the 16 at 18:00 until the 17 at 18:00 UTC


161801Z 1618/1718 19006KT 4000 BR SCT020
TEMPO 1618/1621 8000 NSW BKN010
BECMG 1621/1623 2000
TEMPO 1700/1705 1200 BCFG BKN002
TEMPO 1705/1708 4000
BECMG 1708/1710 9999 NSW
No reported NOTAMs for that airfield.



MET'MAP, your aeronautical weather chart ! - Copyright ORBIFLY December 2007 - Disclaimer

ORBIFLY MET'MAP TEAM :

Programming & Development : Alexandra Zaïnal
Concept & Development : Baudouin d'Aumeries
Co-Development & Prog : Marc-Olivier Méhu
Technical & hardware support : Manuel Goepfert

Contact : metmap@orbifly.com




SOURCES & CREDITS :

   NOAA